createdAt,value
2023-04-24T00:05:21.003Z,37.03
2023-04-24T00:10:26.537Z,35.60
2023-04-24T00:15:31.924Z,37.17
2023-04-24T00:20:42.134Z,39.13
2023-04-24T00:25:47.961Z,37.13
2023-04-24T00:35:59.237Z,41.30
2023-04-24T00:41:05.064Z,37.70
2023-04-24T00:51:18.246Z,35.53
2023-04-24T00:56:23.929Z,36.40
2023-04-24T01:06:36.104Z,35.07
2023-04-24T01:11:43.497Z,37.30
2023-04-24T01:16:50.373Z,36.72
2023-04-24T01:22:01.134Z,38.60
2023-04-24T01:27:08.141Z,38.97
2023-04-24T01:32:13.958Z,38.08
2023-04-24T01:37:19.927Z,39.75
2023-04-24T01:42:27.765Z,37.20
2023-04-24T01:47:36.050Z,37.63
2023-04-24T01:52:41.584Z,36.78
2023-04-24T01:57:48.508Z,37.53
2023-04-24T02:08:00.069Z,36.30
2023-04-24T02:13:07.258Z,32.95
2023-04-24T02:18:13.968Z,34.22
2023-04-24T02:23:19.740Z,33.58
2023-04-24T02:28:25.843Z,34.90
2023-04-24T02:33:32.098Z,30.90
2023-04-24T02:38:44.729Z,35.78
2023-04-24T02:43:52.090Z,32.40
2023-04-24T02:48:57.757Z,41.45
2023-04-24T02:59:08.883Z,41.33
2023-04-24T03:04:15.459Z,33.80
2023-04-24T03:09:21.128Z,38.30
2023-04-24T03:19:32.307Z,40.10
2023-04-24T03:24:43.737Z,39.40
2023-04-24T03:29:54.065Z,40.97
2023-04-24T03:35:00.150Z,38.53
2023-04-24T03:45:19.465Z,29.05
2023-04-24T03:50:29.270Z,28.17
2023-04-24T03:55:38.042Z,35.45
2023-04-24T04:00:44.112Z,31.38
2023-04-24T04:06:21.999Z,36.42
2023-04-24T04:11:29.795Z,33.13
2023-04-24T04:16:35.735Z,27.63
2023-04-24T04:21:42.703Z,29.90
2023-04-24T04:27:13.175Z,28.15
2023-04-24T04:32:29.551Z,30.75
2023-04-24T04:37:36.783Z,28.70
2023-04-24T04:43:08.734Z,36.05
2023-04-24T04:48:21.724Z,32.97
2023-04-24T04:53:28.776Z,34.22
2023-04-24T04:58:35.544Z,33.75
2023-04-24T05:03:43.269Z,35.90
2023-04-24T05:08:52.462Z,34.72
2023-04-24T05:14:21.728Z,31.90
2023-04-24T05:19:31.030Z,34.67
2023-04-24T05:24:37.943Z,35.97
2023-04-24T05:29:52.623Z,34.28
2023-04-24T05:34:58.432Z,34.42
2023-04-24T05:40:04.497Z,30.33
2023-04-24T05:50:15.787Z,29.05
2023-04-24T05:55:21.816Z,32.08
2023-04-24T06:00:28.618Z,33.60
2023-04-24T06:05:42.294Z,32.50
2023-04-24T06:10:48.536Z,33.15
2023-04-24T06:15:57.296Z,29.23
2023-04-24T06:21:16.486Z,32.85
2023-04-24T06:26:26.198Z,33.50
2023-04-24T06:31:53.512Z,32.88
2023-04-24T06:37:00.124Z,28.48
2023-04-24T06:42:05.629Z,30.90
2023-04-24T06:47:16.114Z,31.85
2023-04-24T06:52:22.501Z,30.35
2023-04-24T06:57:28.176Z,28.23
2023-04-24T07:02:37.323Z,30.65
2023-04-24T07:07:44.289Z,25.95
2023-04-24T07:12:50.098Z,29.25
2023-04-24T07:17:55.854Z,26.13
2023-04-24T07:28:38.020Z,24.77
2023-04-24T07:33:43.951Z,24.42
2023-04-24T07:38:49.781Z,30.77
2023-04-24T07:43:56.346Z,25.33
2023-04-24T07:49:13.052Z,25.23
2023-04-24T07:54:19.576Z,24.58
2023-04-24T07:59:25.032Z,23.27
2023-04-24T08:04:35.197Z,24.08
2023-04-24T08:09:40.627Z,25.27
2023-04-24T08:14:46.200Z,27.17
2023-04-24T08:19:53.536Z,24.85
2023-04-24T08:24:59.673Z,25.55
2023-04-24T08:30:09.535Z,25.88
2023-04-24T08:35:20.387Z,25.42
2023-04-24T08:40:32.644Z,26.42
2023-04-24T08:45:39.096Z,25.63
2023-04-24T08:50:45.443Z,26.08
2023-04-24T08:55:52.471Z,28.83
2023-04-24T09:01:04.974Z,25.55
2023-04-24T09:06:12.924Z,27.45
2023-04-24T09:11:20.058Z,23.70
2023-04-24T09:22:07.440Z,25.73
2023-04-24T09:27:15.853Z,26.92
2023-04-24T09:32:27.703Z,27.15
2023-04-24T09:37:37.657Z,24.15
2023-04-24T09:43:11.473Z,26.00
2023-04-24T09:48:16.785Z,26.17
2023-04-24T09:53:28.480Z,24.27
2023-04-24T09:58:34.661Z,23.88
2023-04-24T10:03:40.926Z,23.40
2023-04-24T10:08:48.797Z,22.63
2023-04-24T10:13:55.282Z,22.85
2023-04-24T10:19:03.515Z,24.73
2023-04-24T10:24:10.223Z,25.17
2023-04-24T10:29:20.544Z,23.08
2023-04-24T10:34:27.240Z,24.90
2023-04-24T10:39:35.962Z,24.25
2023-04-24T10:44:43.635Z,26.48
2023-04-24T10:49:49.183Z,24.85
2023-04-24T10:54:55.227Z,26.63
2023-04-24T11:00:18.338Z,25.88
2023-04-24T11:05:25.936Z,26.13
2023-04-24T11:10:31.530Z,25.92
2023-04-24T11:15:37.022Z,27.98
2023-04-24T11:20:47.297Z,28.98
2023-04-24T11:26:15.116Z,25.65
2023-04-24T11:43:12.370Z,28.83
2023-04-24T11:48:23.987Z,29.65
2023-04-24T11:53:30.431Z,28.98
2023-04-24T11:58:43.882Z,29.80
2023-04-24T12:04:03.971Z,27.05
2023-04-24T12:09:20.176Z,27.83
2023-04-24T12:14:26.411Z,29.00
2023-04-24T12:19:36.210Z,29.13
2023-04-24T12:25:03.425Z,28.65
2023-04-24T12:30:15.935Z,29.10
2023-04-24T12:35:28.084Z,30.58
2023-04-24T12:40:34.352Z,28.05
2023-04-24T12:45:40.078Z,29.00
2023-04-24T12:50:47.222Z,27.13
2023-04-24T12:55:56.567Z,28.58
2023-04-24T13:01:11.756Z,25.70
2023-04-24T13:07:17.508Z,26.42
2023-04-24T13:13:49.358Z,25.85
2023-04-24T13:18:55.588Z,25.83
2023-04-24T13:24:01.459Z,27.35
2023-04-24T13:29:08.612Z,15.95
2023-04-24T13:34:14.299Z,22.75
2023-04-24T13:39:21.793Z,24.48
2023-04-24T13:44:32.153Z,22.77
2023-04-24T13:49:37.992Z,25.50
2023-04-24T13:54:43.777Z,22.95
2023-04-24T13:59:53.317Z,25.48
2023-04-24T14:04:59.700Z,25.30
2023-04-24T14:10:06.440Z,26.85
2023-04-24T14:15:14.562Z,23.75
2023-04-24T14:20:29.927Z,27.67
2023-04-24T14:25:35.590Z,27.63
2023-04-24T14:30:43.152Z,13.38
2023-04-24T14:35:50.180Z,26.70
2023-04-24T14:41:06.137Z,28.60
2023-04-24T14:46:16.610Z,23.48
2023-04-24T14:51:25.807Z,24.77
2023-04-24T14:56:32.403Z,20.98
2023-04-24T15:01:39.144Z,27.42
2023-04-24T15:06:44.843Z,20.60
2023-04-24T15:16:56.864Z,20.73
2023-04-24T15:22:05.426Z,21.58
2023-04-24T15:27:16.527Z,23.75
2023-04-24T15:32:24.682Z,25.85
2023-04-24T15:37:30.441Z,25.17
2023-04-24T15:42:36.464Z,26.35
2023-04-24T15:47:42.438Z,25.95
2023-04-24T15:52:49.541Z,24.40
2023-04-24T15:57:54.936Z,24.17
2023-04-24T16:03:00.701Z,20.63
2023-04-24T16:08:06.585Z,24.08
2023-04-24T16:13:13.513Z,25.55
2023-04-24T16:18:19.445Z,26.02
2023-04-24T16:28:31.487Z,24.95
2023-04-24T16:33:37.245Z,21.75
2023-04-24T16:38:46.313Z,20.73
2023-04-24T16:43:52.336Z,21.83
2023-04-24T16:49:05.523Z,23.25
2023-04-24T16:54:14.799Z,20.70
2023-04-24T17:06:04.749Z,23.73
2023-04-24T17:12:26.407Z,22.42
2023-04-24T17:17:36.532Z,19.48
2023-04-24T17:22:42.036Z,19.52
2023-04-24T17:27:48.100Z,23.05
2023-04-24T17:33:28.124Z,21.60
2023-04-24T17:38:33.867Z,22.02
2023-04-24T17:43:39.694Z,24.02
2023-04-24T17:48:46.585Z,23.42
2023-04-24T17:53:53.688Z,26.15
2023-04-24T17:58:59.821Z,21.70
2023-04-24T18:04:05.825Z,20.15
2023-04-24T18:09:12.178Z,22.48
2023-04-24T18:14:17.886Z,19.10
2023-04-24T18:24:29.106Z,18.83
2023-04-24T18:34:40.230Z,16.75
2023-04-24T18:39:45.965Z,18.48
2023-04-24T18:44:51.900Z,16.95
2023-04-24T18:49:57.162Z,17.25
2023-04-24T18:55:03.588Z,16.40
2023-04-24T19:00:10.063Z,17.90
2023-04-24T19:05:15.746Z,16.67
2023-04-24T19:10:21.577Z,16.42
2023-04-24T19:15:28.149Z,16.92
2023-04-24T19:20:34.484Z,17.25
2023-04-24T19:25:40.494Z,17.85
2023-04-24T19:30:46.955Z,16.17
2023-04-24T19:35:52.731Z,16.40
2023-04-24T19:40:58.222Z,16.45
2023-04-24T19:46:03.694Z,18.90
2023-04-24T19:51:09.445Z,17.45
2023-04-24T19:56:14.841Z,16.98
2023-04-24T20:06:26.490Z,16.77
2023-04-24T20:11:32.403Z,17.23
2023-04-24T20:16:38.882Z,16.48
2023-04-24T20:21:44.620Z,15.52
2023-04-24T20:31:55.490Z,17.83
2023-04-24T20:37:01.519Z,16.73
2023-04-24T20:42:07.844Z,17.13
2023-04-24T20:47:13.562Z,18.85
2023-04-24T20:57:24.889Z,22.92
2023-04-24T21:02:30.602Z,20.05
2023-04-24T21:07:36.642Z,21.95
2023-04-24T21:12:42.511Z,23.10
2023-04-24T21:17:48.858Z,21.30
2023-04-24T21:22:54.568Z,23.27
2023-04-24T21:28:02.198Z,21.48
2023-04-24T21:33:08.162Z,20.20
2023-04-24T21:43:20.596Z,25.50
2023-04-24T21:48:29.099Z,29.73
2023-04-24T21:53:35.079Z,27.23
2023-04-24T22:03:46.534Z,24.53
2023-04-24T22:08:52.136Z,33.67
2023-04-24T22:13:58.169Z,26.27
2023-04-24T22:19:04.106Z,29.30
2023-04-24T22:24:11.054Z,26.80
2023-04-24T22:29:17.043Z,29.42
2023-04-24T22:34:22.939Z,26.02
2023-04-24T22:39:29.224Z,30.75
2023-04-24T22:44:35.244Z,30.38
2023-04-24T22:49:41.420Z,27.17
2023-04-24T22:54:47.178Z,27.60
2023-04-24T23:05:10.330Z,28.85
2023-04-24T23:10:15.849Z,27.23
2023-04-24T23:15:21.567Z,26.27
2023-04-24T23:20:28.201Z,24.50
2023-04-24T23:25:34.827Z,23.88
2023-04-24T23:30:41.635Z,28.13
2023-04-24T23:35:47.219Z,26.05
2023-04-24T23:40:53.570Z,25.52
2023-04-24T23:45:58.964Z,23.42
2023-04-24T23:51:04.851Z,26.42
2023-04-24T23:56:10.423Z,24.88
